sensor_id;sensor_type;location;lat;lon;timestamp;pressure;altitude;pressure_sealevel;temperature;humidity
63665;BME280;49820;33.966;73.390;2023-04-19T03:32:21;78601.47;;;10.17;100.00
63665;BME280;49820;33.966;73.390;2023-04-19T03:35:25;78576.78;;;10.44;100.00
63665;BME280;49820;33.966;73.390;2023-04-19T03:37:59;78608.13;;;10.95;100.00
63665;BME280;49820;33.966;73.390;2023-04-19T03:41:03;78580.00;;;11.21;100.00
63665;BME280;49820;33.966;73.390;2023-04-19T03:44:07;78607.63;;;11.83;100.00
63665;BME280;49820;33.966;73.390;2023-04-19T03:47:10;78590.16;;;12.07;100.00
63665;BME280;49820;33.966;73.390;2023-04-19T03:49:57;78607.78;;;12.00;100.00
63665;BME280;49820;33.966;73.390;2023-04-19T03:53:03;78605.22;;;11.73;100.00
63665;BME280;49820;33.966;73.390;2023-04-19T03:55:33;78615.69;;;11.59;100.00
63665;BME280;49820;33.966;73.390;2023-04-19T03:58:37;78624.06;;;11.69;100.00
63665;BME280;49820;33.966;73.390;2023-04-19T04:01:40;78583.03;;;11.54;100.00
63665;BME280;49820;33.966;73.390;2023-04-19T04:04:44;78633.25;;;11.99;100.00
63665;BME280;49820;33.966;73.390;2023-04-19T04:38:36;78671.13;;;9.76;100.00
63665;BME280;49820;33.966;73.390;2023-04-19T06:23:00;78695.63;;;8.16;100.00
63665;BME280;49820;33.966;73.390;2023-04-19T06:26:05;78716.19;;;8.59;100.00
63665;BME280;49820;33.966;73.390;2023-04-19T06:28:34;78702.72;;;8.67;100.00
63665;BME280;49820;33.966;73.390;2023-04-19T07:30:11;78671.66;;;8.55;100.00
63665;BME280;49820;33.966;73.390;2023-04-19T07:33:15;78688.56;;;9.09;100.00
63665;BME280;49820;33.966;73.390;2023-04-19T07:36:19;78673.13;;;9.16;100.00
63665;BME280;49820;33.966;73.390;2023-04-19T07:39:23;78670.56;;;9.41;100.00
63665;BME280;49820;33.966;73.390;2023-04-19T07:42:28;78681.34;;;9.68;100.00
63665;BME280;49820;33.966;73.390;2023-04-19T07:44:58;78619.53;;;9.28;100.00
63665;BME280;49820;33.966;73.390;2023-04-19T07:48:02;78678.31;;;9.84;100.00
63665;BME280;49820;33.966;73.390;2023-04-19T07:51:14;78675.09;;;9.79;100.00
63665;BME280;49820;33.966;73.390;2023-04-19T07:54:21;78667.97;;;9.70;100.00
63665;BME280;49820;33.966;73.390;2023-04-19T08:14:33;78641.88;;;9.43;100.00
63665;BME280;49820;33.966;73.390;2023-04-19T08:17:37;78641.19;;;10.03;100.00
63665;BME280;49820;33.966;73.390;2023-04-19T08:20:27;78619.22;;;9.42;100.00
63665;BME280;49820;33.966;73.390;2023-04-19T08:36:08;78645.34;;;9.38;100.00
63665;BME280;49820;33.966;73.390;2023-04-19T08:40:53;78615.13;;;9.16;100.00
63665;BME280;49820;33.966;73.390;2023-04-19T08:44:00;78612.59;;;9.10;100.00
63665;BME280;49820;33.966;73.390;2023-04-19T08:47:05;78617.97;;;9.39;100.00
63665;BME280;49820;33.966;73.390;2023-04-19T08:50:10;78587.94;;;9.41;100.00
63665;BME280;49820;33.966;73.390;2023-04-19T08:53:15;78586.91;;;9.56;100.00
63665;BME280;49820;33.966;73.390;2023-04-19T08:56:18;78602.34;;;10.08;100.00
63665;BME280;49820;33.966;73.390;2023-04-19T08:59:23;78596.28;;;10.11;100.00
63665;BME280;49820;33.966;73.390;2023-04-19T09:02:10;78592.31;;;9.81;100.00
63665;BME280;49820;33.966;73.390;2023-04-19T09:05:15;78616.59;;;9.71;100.00
63665;BME280;49820;33.966;73.390;2023-04-19T09:07:46;78612.41;;;9.78;100.00
63665;BME280;49820;33.966;73.390;2023-04-19T09:10:55;78606.81;;;10.17;100.00
63665;BME280;49820;33.966;73.390;2023-04-19T09:13:40;78586.78;;;10.16;100.00
63665;BME280;49820;33.966;73.390;2023-04-19T09:16:47;78577.47;;;10.42;100.00
63665;BME280;49820;33.966;73.390;2023-04-19T09:19:47;78590.56;;;10.27;100.00
63665;BME280;49820;33.966;73.390;2023-04-19T09:22:17;78596.06;;;10.21;100.00
63665;BME280;49820;33.966;73.390;2023-04-19T09:24:46;78574.81;;;10.15;100.00
63665;BME280;49820;33.966;73.390;2023-04-19T09:27:36;78563.63;;;10.09;100.00
63665;BME280;49820;33.966;73.390;2023-04-19T09:30:40;78575.81;;;10.02;100.00
63665;BME280;49820;33.966;73.390;2023-04-19T09:33:44;78581.34;;;9.67;100.00
63665;BME280;49820;33.966;73.390;2023-04-19T09:36:48;78572.16;;;9.60;100.00
63665;BME280;49820;33.966;73.390;2023-04-19T09:39:52;78577.69;;;9.80;100.00
63665;BME280;49820;33.966;73.390;2023-04-19T09:42:56;78532.38;;;9.23;100.00
63665;BME280;49820;33.966;73.390;2023-04-19T09:46:01;78577.72;;;9.78;100.00
63665;BME280;49820;33.966;73.390;2023-04-19T09:49:30;78576.97;;;10.09;100.00
63665;BME280;49820;33.966;73.390;2023-04-19T09:52:04;78562.63;;;10.22;100.00
63665;BME280;49820;33.966;73.390;2023-04-19T09:55:08;78547.44;;;10.15;100.00
63665;BME280;49820;33.966;73.390;2023-04-19T09:58:13;78560.41;;;10.31;100.00
63665;BME280;49820;33.966;73.390;2023-04-19T10:00:44;78537.94;;;10.71;100.00
63665;BME280;49820;33.966;73.390;2023-04-19T10:03:49;78552.50;;;11.24;100.00
63665;BME280;49820;33.966;73.390;2023-04-19T10:06:20;78495.16;;;11.19;100.00
63665;BME280;49820;33.966;73.390;2023-04-19T10:08:53;78525.88;;;11.43;100.00
63665;BME280;49820;33.966;73.390;2023-04-19T10:11:59;78549.78;;;11.70;100.00
63665;BME280;49820;33.966;73.390;2023-04-19T10:15:00;78524.28;;;11.73;100.00
63665;BME280;49820;33.966;73.390;2023-04-19T10:17:47;78511.72;;;11.90;100.00
63665;BME280;49820;33.966;73.390;2023-04-19T10:20:58;78528.50;;;11.89;100.00
63665;BME280;49820;33.966;73.390;2023-04-19T10:23:47;78517.47;;;11.55;100.00
63665;BME280;49820;33.966;73.390;2023-04-19T10:27:10;78541.69;;;11.95;100.00
63665;BME280;49820;33.966;73.390;2023-04-19T10:29:59;78535.06;;;12.14;100.00
63665;BME280;49820;33.966;73.390;2023-04-19T10:32:39;78532.44;;;12.12;100.00
63665;BME280;49820;33.966;73.390;2023-04-19T10:35:32;78537.28;;;12.08;100.00
63665;BME280;49820;33.966;73.390;2023-04-19T10:38:42;78525.44;;;12.01;100.00
63665;BME280;49820;33.966;73.390;2023-04-19T10:41:57;78530.16;;;12.21;100.00
63665;BME280;49820;33.966;73.390;2023-04-19T10:45:32;78534.88;;;11.77;100.00
63665;BME280;49820;33.966;73.390;2023-04-19T10:48:02;78526.03;;;12.03;100.00
63665;BME280;49820;33.966;73.390;2023-04-19T10:50:57;78519.88;;;12.48;100.00
63665;BME280;49820;33.966;73.390;2023-04-19T10:53:46;78522.69;;;12.44;100.00
63665;BME280;49820;33.966;73.390;2023-04-19T10:57:01;78522.75;;;12.21;100.00
63665;BME280;49820;33.966;73.390;2023-04-19T11:00:18;78520.56;;;12.86;100.00
63665;BME280;49820;33.966;73.390;2023-04-19T11:12:30;78511.66;;;11.92;100.00
63665;BME280;49820;33.966;73.390;2023-04-19T11:14:59;78501.84;;;11.84;100.00
63665;BME280;49820;33.966;73.390;2023-04-19T11:17:49;78518.97;;;12.75;100.00
63665;BME280;49820;33.966;73.390;2023-04-19T11:20:53;78503.34;;;13.00;100.00
63665;BME280;49820;33.966;73.390;2023-04-19T11:23:41;78495.53;;;13.13;100.00
63665;BME280;49820;33.966;73.390;2023-04-19T11:26:45;78499.34;;;12.99;100.00
63665;BME280;49820;33.966;73.390;2023-04-19T11:30:04;78470.94;;;12.69;100.00
63665;BME280;49820;33.966;73.390;2023-04-19T11:32:53;78491.88;;;13.02;100.00
63665;BME280;49820;33.966;73.390;2023-04-19T11:35:42;78489.88;;;12.44;100.00
63665;BME280;49820;33.966;73.390;2023-04-19T11:38:49;78490.75;;;12.38;100.00
63665;BME280;49820;33.966;73.390;2023-04-19T11:41:53;78492.03;;;12.00;100.00
63665;BME280;49820;33.966;73.390;2023-04-19T11:44:57;78498.34;;;11.46;100.00
63665;BME280;49820;33.966;73.390;2023-04-19T11:47:50;78482.91;;;11.70;100.00
63665;BME280;49820;33.966;73.390;2023-04-19T11:50:57;78483.50;;;11.29;100.00
63665;BME280;49820;33.966;73.390;2023-04-19T11:53:28;78504.63;;;11.16;100.00
63665;BME280;49820;33.966;73.390;2023-04-19T11:56:33;78490.28;;;11.03;100.00
63665;BME280;49820;33.966;73.390;2023-04-19T11:59:02;78456.22;;;10.33;100.00
63665;BME280;49820;33.966;73.390;2023-04-19T12:02:06;78493.44;;;10.39;100.00
63665;BME280;49820;33.966;73.390;2023-04-19T12:05:14;78482.47;;;10.00;100.00
63665;BME280;49820;33.966;73.390;2023-04-19T12:08:29;78478.44;;;10.01;100.00
63665;BME280;49820;33.966;73.390;2023-04-19T12:11:44;78475.09;;;9.75;100.00
63665;BME280;49820;33.966;73.390;2023-04-19T12:14:52;78483.13;;;9.73;100.00
63665;BME280;49820;33.966;73.390;2023-04-19T12:17:55;78485.09;;;9.75;100.00
63665;BME280;49820;33.966;73.390;2023-04-19T12:20:59;78447.75;;;9.23;100.00
63665;BME280;49820;33.966;73.390;2023-04-19T12:24:03;78481.94;;;9.41;100.00
63665;BME280;49820;33.966;73.390;2023-04-19T12:27:09;78490.19;;;9.31;100.00
63665;BME280;49820;33.966;73.390;2023-04-19T12:30:13;78490.28;;;9.27;100.00
63665;BME280;49820;33.966;73.390;2023-04-19T12:32:42;78469.41;;;9.09;100.00
63665;BME280;49820;33.966;73.390;2023-04-19T12:35:46;78459.00;;;8.99;100.00
63665;BME280;49820;33.966;73.390;2023-04-19T12:38:49;78466.25;;;9.00;100.00
63665;BME280;49820;33.966;73.390;2023-04-19T12:41:54;78471.09;;;8.94;100.00
63665;BME280;49820;33.966;73.390;2023-04-19T12:44:57;78453.69;;;8.68;100.00
63665;BME280;49820;33.966;73.390;2023-04-19T12:48:02;78469.56;;;8.74;100.00
63665;BME280;49820;33.966;73.390;2023-04-19T12:51:05;78454.06;;;8.52;100.00
63665;BME280;49820;33.966;73.390;2023-04-19T12:54:09;78469.59;;;8.72;100.00
63665;BME280;49820;33.966;73.390;2023-04-19T12:57:13;78461.88;;;8.60;100.00
63665;BME280;49820;33.966;73.390;2023-04-19T12:59:41;78484.25;;;8.71;100.00
63665;BME280;49820;33.966;73.390;2023-04-19T13:02:45;78473.78;;;8.63;100.00
63665;BME280;49820;33.966;73.390;2023-04-19T13:05:33;78477.31;;;8.53;100.00
63665;BME280;49820;33.966;73.390;2023-04-19T13:08:37;78468.19;;;8.44;100.00
63665;BME280;49820;33.966;73.390;2023-04-19T13:11:14;78487.13;;;8.61;100.00
63665;BME280;49820;33.966;73.390;2023-04-19T13:14:20;78435.47;;;8.19;100.00
63665;BME280;49820;33.966;73.390;2023-04-19T13:17:23;78494.72;;;8.50;100.00
63665;BME280;49820;33.966;73.390;2023-04-19T13:20:27;78461.16;;;8.30;100.00
63665;BME280;49820;33.966;73.390;2023-04-19T13:23:14;78445.53;;;8.14;100.00
63665;BME280;49820;33.966;73.390;2023-04-19T13:26:18;78483.69;;;8.35;100.00
63665;BME280;49820;33.966;73.390;2023-04-19T13:28:47;78480.47;;;8.31;100.00
63665;BME280;49820;33.966;73.390;2023-04-19T13:31:51;78443.75;;;8.04;100.00
63665;BME280;49820;33.966;73.390;2023-04-19T13:34:55;78489.94;;;8.22;100.00
63665;BME280;49820;33.966;73.390;2023-04-19T13:37:24;78518.22;;;8.39;100.00
63665;BME280;49820;33.966;73.390;2023-04-19T13:40:28;78479.25;;;8.24;100.00
63665;BME280;49820;33.966;73.390;2023-04-19T13:42:57;78413.75;;;7.77;100.00
63665;BME280;49820;33.966;73.390;2023-04-19T13:46:01;78475.81;;;8.29;100.00
63665;BME280;49820;33.966;73.390;2023-04-19T13:49:05;78426.56;;;7.99;100.00
63665;BME280;49820;33.966;73.390;2023-04-19T13:52:09;78460.34;;;8.38;100.00
63665;BME280;49820;33.966;73.390;2023-04-19T13:55:14;78434.16;;;8.18;100.00
63665;BME280;49820;33.966;73.390;2023-04-19T13:57:43;78448.00;;;8.24;100.00
63665;BME280;49820;33.966;73.390;2023-04-19T14:00:47;78476.25;;;8.42;100.00
63665;BME280;49820;33.966;73.390;2023-04-19T14:03:51;78487.28;;;8.55;100.00
63665;BME280;49820;33.966;73.390;2023-04-19T14:06:55;78483.50;;;8.43;100.00
63665;BME280;49820;33.966;73.390;2023-04-19T14:09:58;78468.38;;;8.36;100.00
63665;BME280;49820;33.966;73.390;2023-04-19T14:12:28;78448.13;;;8.18;100.00
63665;BME280;49820;33.966;73.390;2023-04-19T14:15:31;78491.16;;;8.60;100.00
63665;BME280;49820;33.966;73.390;2023-04-19T14:18:01;78481.78;;;8.63;100.00
63665;BME280;49820;33.966;73.390;2023-04-19T14:21:05;78481.41;;;8.50;100.00
63665;BME280;49820;33.966;73.390;2023-04-19T14:23:53;78525.53;;;8.72;100.00
63665;BME280;49820;33.966;73.390;2023-04-19T14:26:38;78526.97;;;8.67;100.00
63665;BME280;49820;33.966;73.390;2023-04-19T14:29:07;78531.41;;;8.76;100.00
63665;BME280;49820;33.966;73.390;2023-04-19T14:31:35;78522.06;;;8.77;100.00
63665;BME280;49820;33.966;73.390;2023-04-19T14:34:04;78525.19;;;8.86;100.00
63665;BME280;49820;33.966;73.390;2023-04-19T14:37:09;78499.06;;;8.64;100.00
63665;BME280;49820;33.966;73.390;2023-04-19T14:40:12;78550.47;;;7.88;100.00
63665;BME280;49820;33.966;73.390;2023-04-19T14:43:16;78525.34;;;7.79;100.00
63665;BME280;49820;33.966;73.390;2023-04-19T14:46:02;78518.50;;;7.55;100.00
63665;BME280;49820;33.966;73.390;2023-04-19T14:49:05;78489.13;;;6.87;100.00
